sensor_id;sensor_type;location;lat;lon;timestamp;pressure;altitude;pressure_sealevel;temperature;humidity
23166;BME280;11751;42.700;24.170;2023-03-03T00:00:23;94026.69;;;5.01;nan
23166;BME280;11751;42.700;24.170;2023-03-03T00:02:48;94029.03;;;4.73;nan
23166;BME280;11751;42.700;24.170;2023-03-03T00:05:14;94026.50;;;4.75;nan
23166;BME280;11751;42.700;24.170;2023-03-03T00:07:43;94025.91;;;4.82;nan
23166;BME280;11751;42.700;24.170;2023-03-03T00:10:09;94025.44;;;4.78;nan
23166;BME280;11751;42.700;24.170;2023-03-03T00:12:44;94020.31;;;4.63;nan
23166;BME280;11751;42.700;24.170;2023-03-03T00:15:21;94028.75;;;4.76;nan
23166;BME280;11751;42.700;24.170;2023-03-03T00:17:46;94011.81;;;4.80;nan
23166;BME280;11751;42.700;24.170;2023-03-03T00:22:50;94011.25;;;4.63;nan
23166;BME280;11751;42.700;24.170;2023-03-03T00:25:32;94010.72;;;4.64;nan
23166;BME280;11751;42.700;24.170;2023-03-03T00:28:23;94015.97;;;4.68;nan
23166;BME280;11751;42.700;24.170;2023-03-03T00:30:51;94013.19;;;4.68;nan
23166;BME280;11751;42.700;24.170;2023-03-03T00:35:53;94002.88;;;4.68;nan
23166;BME280;11751;42.700;24.170;2023-03-03T00:38:19;93998.06;;;4.69;nan
23166;BME280;11751;42.700;24.170;2023-03-03T00:40:45;93991.72;;;4.74;nan
23166;BME280;11751;42.700;24.170;2023-03-03T00:43:21;94003.50;;;4.56;nan
23166;BME280;11751;42.700;24.170;2023-03-03T00:45:48;93993.13;;;4.62;nan
23166;BME280;11751;42.700;24.170;2023-03-03T00:48:40;93973.28;;;4.52;nan
23166;BME280;11751;42.700;24.170;2023-03-03T00:53:46;93970.69;;;4.60;nan
23166;BME280;11751;42.700;24.170;2023-03-03T00:56:12;93973.88;;;4.69;nan
23166;BME280;11751;42.700;24.170;2023-03-03T00:58:38;93968.25;;;4.75;nan
23166;BME280;11751;42.700;24.170;2023-03-03T01:01:03;93968.59;;;4.66;nan
23166;BME280;11751;42.700;24.170;2023-03-03T01:03:29;93959.94;;;4.75;nan
23166;BME280;11751;42.700;24.170;2023-03-03T01:05:54;93960.88;;;4.59;nan
23166;BME280;11751;42.700;24.170;2023-03-03T01:08:20;93953.47;;;4.67;nan
23166;BME280;11751;42.700;24.170;2023-03-03T01:10:54;93955.44;;;4.72;nan
23166;BME280;11751;42.700;24.170;2023-03-03T01:13:27;93950.31;;;4.57;nan
23166;BME280;11751;42.700;24.170;2023-03-03T01:15:54;93954.28;;;4.62;nan
23166;BME280;11751;42.700;24.170;2023-03-03T01:18:20;93946.91;;;4.46;nan
23166;BME280;11751;42.700;24.170;2023-03-03T01:20:45;93947.59;;;4.52;nan
23166;BME280;11751;42.700;24.170;2023-03-03T01:23:11;93946.75;;;4.38;nan
23166;BME280;11751;42.700;24.170;2023-03-03T01:25:37;93950.63;;;4.54;nan
23166;BME280;11751;42.700;24.170;2023-03-03T01:28:03;93944.06;;;4.51;nan
23166;BME280;11751;42.700;24.170;2023-03-03T01:30:29;93948.19;;;4.45;nan
23166;BME280;11751;42.700;24.170;2023-03-03T01:32:54;93945.06;;;4.54;nan
23166;BME280;11751;42.700;24.170;2023-03-03T01:35:20;93942.56;;;4.50;nan
23166;BME280;11751;42.700;24.170;2023-03-03T01:37:45;93947.13;;;4.48;nan
23166;BME280;11751;42.700;24.170;2023-03-03T01:40:14;93939.06;;;4.50;nan
23166;BME280;11751;42.700;24.170;2023-03-03T01:42:40;93935.38;;;4.60;nan
23166;BME280;11751;42.700;24.170;2023-03-03T01:47:44;93928.69;;;4.50;nan
23166;BME280;11751;42.700;24.170;2023-03-03T01:50:14;93928.44;;;4.54;nan
23166;BME280;11751;42.700;24.170;2023-03-03T01:52:44;93927.59;;;4.59;nan
23166;BME280;11751;42.700;24.170;2023-03-03T01:55:14;93937.06;;;4.69;nan
23166;BME280;11751;42.700;24.170;2023-03-03T01:57:47;93930.91;;;4.57;nan
23166;BME280;11751;42.700;24.170;2023-03-03T02:00:14;93933.09;;;4.64;nan
23166;BME280;11751;42.700;24.170;2023-03-03T02:02:41;93925.53;;;4.65;nan
23166;BME280;11751;42.700;24.170;2023-03-03T02:05:07;93927.31;;;4.62;nan
23166;BME280;11751;42.700;24.170;2023-03-03T02:07:33;93927.22;;;4.68;nan
23166;BME280;11751;42.700;24.170;2023-03-03T02:10:08;93933.69;;;4.76;nan
23166;BME280;11751;42.700;24.170;2023-03-03T02:12:38;93931.16;;;4.78;nan
23166;BME280;11751;42.700;24.170;2023-03-03T02:15:22;93929.22;;;4.73;nan
23166;BME280;11751;42.700;24.170;2023-03-03T02:17:53;93922.91;;;4.72;nan
23166;BME280;11751;42.700;24.170;2023-03-03T02:28:22;93924.09;;;4.77;nan
23166;BME280;11751;42.700;24.170;2023-03-03T02:30:48;93920.41;;;4.69;nan
23166;BME280;11751;42.700;24.170;2023-03-03T02:33:14;93922.47;;;4.68;nan
23166;BME280;11751;42.700;24.170;2023-03-03T02:35:40;93917.47;;;4.61;nan
23166;BME280;11751;42.700;24.170;2023-03-03T02:40:59;93917.88;;;4.71;nan
23166;BME280;11751;42.700;24.170;2023-03-03T02:43:32;93921.81;;;4.57;nan
23166;BME280;11751;42.700;24.170;2023-03-03T02:46:00;93920.31;;;4.56;nan
23166;BME280;11751;42.700;24.170;2023-03-03T02:48:26;93911.44;;;4.63;nan
23166;BME280;11751;42.700;24.170;2023-03-03T02:50:51;93913.13;;;4.66;nan
23166;BME280;11751;42.700;24.170;2023-03-03T02:53:17;93918.53;;;4.58;nan
23166;BME280;11751;42.700;24.170;2023-03-03T02:55:42;93917.66;;;4.69;nan
23166;BME280;11751;42.700;24.170;2023-03-03T02:58:08;93920.94;;;4.67;nan
23166;BME280;11751;42.700;24.170;2023-03-03T03:00:33;93921.19;;;4.69;nan
23166;BME280;11751;42.700;24.170;2023-03-03T03:02:58;93910.28;;;4.53;nan
23166;BME280;11751;42.700;24.170;2023-03-03T03:05:24;93918.25;;;4.62;nan
23166;BME280;11751;42.700;24.170;2023-03-03T03:07:49;93911.66;;;4.65;nan
23166;BME280;11751;42.700;24.170;2023-03-03T03:10:15;93916.91;;;4.68;nan
23166;BME280;11751;42.700;24.170;2023-03-03T03:12:40;93909.53;;;4.52;nan
23166;BME280;11751;42.700;24.170;2023-03-03T03:15:06;93909.69;;;4.60;nan
23166;BME280;11751;42.700;24.170;2023-03-03T03:17:35;93901.91;;;4.58;nan
23166;BME280;11751;42.700;24.170;2023-03-03T03:20:00;93904.00;;;4.71;nan
23166;BME280;11751;42.700;24.170;2023-03-03T03:22:26;93904.81;;;4.66;nan
23166;BME280;11751;42.700;24.170;2023-03-03T03:24:51;93906.69;;;4.58;nan
23166;BME280;11751;42.700;24.170;2023-03-03T03:27:17;93902.66;;;4.59;nan
23166;BME280;11751;42.700;24.170;2023-03-03T03:29:43;93902.78;;;4.48;nan
23166;BME280;11751;42.700;24.170;2023-03-03T03:32:08;93897.59;;;4.39;nan
23166;BME280;11751;42.700;24.170;2023-03-03T03:34:34;93893.50;;;4.45;nan
23166;BME280;11751;42.700;24.170;2023-03-03T03:36:59;93896.81;;;4.44;nan
23166;BME280;11751;42.700;24.170;2023-03-03T03:39:25;93894.09;;;4.38;nan
23166;BME280;11751;42.700;24.170;2023-03-03T03:41:50;93897.66;;;4.33;nan
23166;BME280;11751;42.700;24.170;2023-03-03T03:44:16;93904.53;;;4.27;nan
23166;BME280;11751;42.700;24.170;2023-03-03T03:46:41;93903.97;;;4.34;nan
23166;BME280;11751;42.700;24.170;2023-03-03T03:49:06;93901.81;;;4.21;nan
23166;BME280;11751;42.700;24.170;2023-03-03T03:51:32;93898.09;;;4.19;nan
23166;BME280;11751;42.700;24.170;2023-03-03T03:53:59;93893.31;;;4.38;nan
23166;BME280;11751;42.700;24.170;2023-03-03T03:56:25;93899.94;;;4.35;nan
23166;BME280;11751;42.700;24.170;2023-03-03T03:58:50;93898.88;;;4.38;nan
23166;BME280;11751;42.700;24.170;2023-03-03T04:01:15;93891.25;;;4.44;nan
23166;BME280;11751;42.700;24.170;2023-03-03T04:03:41;93894.31;;;4.40;nan
23166;BME280;11751;42.700;24.170;2023-03-03T04:06:06;93893.56;;;4.40;nan
23166;BME280;11751;42.700;24.170;2023-03-03T04:08:32;93890.59;;;4.14;nan
23166;BME280;11751;42.700;24.170;2023-03-03T04:10:57;93893.38;;;4.14;nan
23166;BME280;11751;42.700;24.170;2023-03-03T04:13:22;93892.22;;;4.04;nan
23166;BME280;11751;42.700;24.170;2023-03-03T04:15:48;93892.09;;;4.15;nan
23166;BME280;11751;42.700;24.170;2023-03-03T04:18:13;93894.16;;;4.09;nan
23166;BME280;11751;42.700;24.170;2023-03-03T04:20:39;93899.00;;;4.27;nan
23166;BME280;11751;42.700;24.170;2023-03-03T04:23:05;93907.84;;;4.25;nan
23166;BME280;11751;42.700;24.170;2023-03-03T04:25:30;93907.47;;;4.34;nan
23166;BME280;11751;42.700;24.170;2023-03-03T04:27:56;93903.38;;;4.41;nan
23166;BME280;11751;42.700;24.170;2023-03-03T04:30:21;93897.72;;;4.28;nan
23166;BME280;11751;42.700;24.170;2023-03-03T04:32:46;93905.75;;;4.31;nan
23166;BME280;11751;42.700;24.170;2023-03-03T04:35:12;93904.94;;;4.36;nan
23166;BME280;11751;42.700;24.170;2023-03-03T04:37:38;93901.28;;;4.47;nan
23166;BME280;11751;42.700;24.170;2023-03-03T04:40:05;93899.69;;;4.33;nan
23166;BME280;11751;42.700;24.170;2023-03-03T04:42:30;93905.91;;;4.39;nan
23166;BME280;11751;42.700;24.170;2023-03-03T04:44:56;93901.13;;;4.39;nan
23166;BME280;11751;42.700;24.170;2023-03-03T04:47:21;93904.28;;;4.49;nan
23166;BME280;11751;42.700;24.170;2023-03-03T04:49:47;93898.13;;;4.37;nan
23166;BME280;11751;42.700;24.170;2023-03-03T04:52:12;93898.03;;;4.24;nan
23166;BME280;11751;42.700;24.170;2023-03-03T04:54:37;93910.53;;;4.31;nan
23166;BME280;11751;42.700;24.170;2023-03-03T04:57:03;93904.09;;;4.23;nan
23166;BME280;11751;42.700;24.170;2023-03-03T04:59:28;93902.81;;;4.24;nan
23166;BME280;11751;42.700;24.170;2023-03-03T05:01:54;93905.00;;;4.31;nan
23166;BME280;11751;42.700;24.170;2023-03-03T05:04:19;93904.88;;;4.42;nan
23166;BME280;11751;42.700;24.170;2023-03-03T05:06:44;93905.56;;;4.48;nan
23166;BME280;11751;42.700;24.170;2023-03-03T05:09:10;93909.69;;;4.60;nan
23166;BME280;11751;42.700;24.170;2023-03-03T05:11:35;93904.53;;;4.69;nan
23166;BME280;11751;42.700;24.170;2023-03-03T05:14:01;93907.16;;;4.62;nan
23166;BME280;11751;42.700;24.170;2023-03-03T05:16:27;93918.25;;;4.62;nan
23166;BME280;11751;42.700;24.170;2023-03-03T05:18:53;93915.25;;;4.60;nan
23166;BME280;11751;42.700;24.170;2023-03-03T05:21:19;93919.16;;;4.70;nan
23166;BME280;11751;42.700;24.170;2023-03-03T05:23:44;93916.50;;;4.59;nan
23166;BME280;11751;42.700;24.170;2023-03-03T05:26:10;93909.53;;;4.52;nan
23166;BME280;11751;42.700;24.170;2023-03-03T05:28:35;93917.22;;;4.65;nan
23166;BME280;11751;42.700;24.170;2023-03-03T05:31:00;93913.50;;;4.57;nan
23166;BME280;11751;42.700;24.170;2023-03-03T05:33:26;93918.84;;;4.55;nan
23166;BME280;11751;42.700;24.170;2023-03-03T05:35:55;93912.56;;;4.73;nan
23166;BME280;11751;42.700;24.170;2023-03-03T05:38:22;93917.03;;;4.76;nan
23166;BME280;11751;42.700;24.170;2023-03-03T05:40:47;93916.91;;;4.68;nan
23166;BME280;11751;42.700;24.170;2023-03-03T05:43:13;93918.53;;;4.77;nan
23166;BME280;11751;42.700;24.170;2023-03-03T05:45:38;93915.34;;;4.73;nan
23166;BME280;11751;42.700;24.170;2023-03-03T05:48:04;93917.94;;;4.65;nan
23166;BME280;11751;42.700;24.170;2023-03-03T05:50:30;93924.53;;;4.62;nan
23166;BME280;11751;42.700;24.170;2023-03-03T05:52:56;93923.72;;;4.67;nan
23166;BME280;11751;42.700;24.170;2023-03-03T05:55:22;93926.66;;;4.75;nan
23166;BME280;11751;42.700;24.170;2023-03-03T05:57:47;93918.78;;;4.79;nan
23166;BME280;11751;42.700;24.170;2023-03-03T06:00:13;93922.59;;;4.76;nan
23166;BME280;11751;42.700;24.170;2023-03-03T06:02:40;93930.25;;;4.88;nan
23166;BME280;11751;42.700;24.170;2023-03-03T06:05:06;93913.47;;;4.81;nan
23166;BME280;11751;42.700;24.170;2023-03-03T06:07:32;93922.69;;;4.89;nan
23166;BME280;11751;42.700;24.170;2023-03-03T06:09:57;93922.16;;;4.72;nan
23166;BME280;11751;42.700;24.170;2023-03-03T06:12:23;93918.91;;;4.68;nan
23166;BME280;11751;42.700;24.170;2023-03-03T06:14:48;93922.31;;;4.79;nan
23166;BME280;11751;42.700;24.170;2023-03-03T06:17:13;93924.56;;;4.81;nan
23166;BME280;11751;42.700;24.170;2023-03-03T06:19:39;93916.91;;;4.87;nan
23166;BME280;11751;42.700;24.170;2023-03-03T06:22:06;93920.06;;;4.78;nan
23166;BME280;11751;42.700;24.170;2023-03-03T06:24:31;93915.31;;;4.91;nan
23166;BME280;11751;42.700;24.170;2023-03-03T06:26:57;93931.00;;;4.89;nan
23166;BME280;11751;42.700;24.170;2023-03-03T06:29:23;93933.88;;;5.02;nan
23166;BME280;11751;42.700;24.170;2023-03-03T06:31:49;93937.44;;;4.97;nan
23166;BME280;11751;42.700;24.170;2023-03-03T06:34:14;93930.25;;;5.06;nan
23166;BME280;11751;42.700;24.170;2023-03-03T06:36:39;93923.81;;;5.17;nan
23166;BME280;11751;42.700;24.170;2023-03-03T06:39:05;93920.88;;;5.09;nan
23166;BME280;11751;42.700;24.170;2023-03-03T06:41:30;93934.28;;;5.05;nan
23166;BME280;11751;42.700;24.170;2023-03-03T06:43:56;93931.59;;;5.00;nan
23166;BME280;11751;42.700;24.170;2023-03-03T06:46:22;93935.50;;;5.10;nan
23166;BME280;11751;42.700;24.170;2023-03-03T06:48:48;93934.16;;;5.16;nan
23166;BME280;11751;42.700;24.170;2023-03-03T06:51:31;93934.22;;;5.11;nan
23166;BME280;11751;42.700;24.170;2023-03-03T06:54:01;93942.63;;;5.05;nan
23166;BME280;11751;42.700;24.170;2023-03-03T06:56:33;93934.75;;;5.09;nan
23166;BME280;11751;42.700;24.170;2023-03-03T06:59:00;93936.69;;;5.14;nan
23166;BME280;11751;42.700;24.170;2023-03-03T07:01:31;93942.53;;;5.29;nan
23166;BME280;11751;42.700;24.170;2023-03-03T07:03:59;93941.44;;;5.19;nan
23166;BME280;11751;42.700;24.170;2023-03-03T07:06:25;93940.22;;;5.33;nan
23166;BME280;11751;42.700;24.170;2023-03-03T07:08:53;93942.38;;;5.40;nan
23166;BME280;11751;42.700;24.170;2023-03-03T07:11:20;93939.38;;;5.38;nan
23166;BME280;11751;42.700;24.170;2023-03-03T07:13:51;93927.22;;;5.41;nan
23166;BME280;11751;42.700;24.170;2023-03-03T07:16:18;93934.56;;;5.39;nan
23166;BME280;11751;42.700;24.170;2023-03-03T07:21:39;93924.38;;;5.47;nan
23166;BME280;11751;42.700;24.170;2023-03-03T07:24:29;93930.75;;;5.42;nan
23166;BME280;11751;42.700;24.170;2023-03-03T07:29:48;93930.41;;;5.32;nan
23166;BME280;11751;42.700;24.170;2023-03-03T07:32:34;93934.06;;;5.40;nan
23166;BME280;11751;42.700;24.170;2023-03-03T07:35:21;93924.97;;;5.40;nan
23166;BME280;11751;42.700;24.170;2023-03-03T07:37:48;93928.72;;;5.42;nan
23166;BME280;11751;42.700;24.170;2023-03-03T07:42:52;93932.94;;;5.30;nan
23166;BME280;11751;42.700;24.170;2023-03-03T07:47:48;93926.59;;;5.48;nan
23166;BME280;11751;42.700;24.170;2023-03-03T07:50:18;93925.69;;;5.59;nan
23166;BME280;11751;42.700;24.170;2023-03-03T07:55:30;93927.75;;;5.71;nan
23166;BME280;11751;42.700;24.170;2023-03-03T08:03:15;93923.50;;;5.70;nan
23166;BME280;11751;42.700;24.170;2023-03-03T08:05:43;93928.81;;;5.68;nan
23166;BME280;11751;42.700;24.170;2023-03-03T08:10:38;93925.66;;;5.77;nan
23166;BME280;11751;42.700;24.170;2023-03-03T08:13:21;93926.19;;;5.76;nan
23166;BME280;11751;42.700;24.170;2023-03-03T08:15:51;93916.78;;;5.79;nan
23166;BME280;11751;42.700;24.170;2023-03-03T08:20:56;93927.75;;;5.71;nan
23166;BME280;11751;42.700;24.170;2023-03-03T08:23:22;93921.06;;;5.80;nan
23166;BME280;11751;42.700;24.170;2023-03-03T08:25:49;93925.88;;;5.79;nan
23166;BME280;11751;42.700;24.170;2023-03-03T08:28:16;93914.38;;;5.88;nan
23166;BME280;11751;42.700;24.170;2023-03-03T08:30:42;93914.69;;;5.97;nan
23166;BME280;11751;42.700;24.170;2023-03-03T08:33:08;93912.47;;;5.96;nan
23166;BME280;11751;42.700;24.170;2023-03-03T08:35:34;93915.00;;;5.94;nan
23166;BME280;11751;42.700;24.170;2023-03-03T08:37:59;93921.09;;;5.93;nan
23166;BME280;11751;42.700;24.170;2023-03-03T08:40:25;93907.13;;;5.98;nan
23166;BME280;11751;42.700;24.170;2023-03-03T08:42:53;93906.06;;;6.01;nan
23166;BME280;11751;42.700;24.170;2023-03-03T08:45:19;93908.63;;;5.99;nan
23166;BME280;11751;42.700;24.170;2023-03-03T08:47:44;93905.66;;;6.10;nan
23166;BME280;11751;42.700;24.170;2023-03-03T08:50:10;93910.75;;;6.06;nan
23166;BME280;11751;42.700;24.170;2023-03-03T08:52:36;93903.94;;;6.07;nan
23166;BME280;11751;42.700;24.170;2023-03-03T08:55:02;93913.00;;;6.07;nan
23166;BME280;11751;42.700;24.170;2023-03-03T08:57:27;93911.41;;;6.12;nan
23166;BME280;11751;42.700;24.170;2023-03-03T08:59:53;93908.13;;;6.26;nan
23166;BME280;11751;42.700;24.170;2023-03-03T09:02:18;93903.50;;;6.16;nan
23166;BME280;11751;42.700;24.170;2023-03-03T09:04:43;93898.81;;;6.37;nan
23166;BME280;11751;42.700;24.170;2023-03-03T09:07:09;93892.59;;;6.57;nan
23166;BME280;11751;42.700;24.170;2023-03-03T09:09:34;93896.03;;;6.50;nan
23166;BME280;11751;42.700;24.170;2023-03-03T09:12:12;93898.47;;;6.66;nan
23166;BME280;11751;42.700;24.170;2023-03-03T09:14:39;93888.50;;;6.71;nan
23166;BME280;11751;42.700;24.170;2023-03-03T09:17:25;93891.06;;;6.81;nan
23166;BME280;11751;42.700;24.170;2023-03-03T09:19:52;93897.41;;;6.82;nan
23166;BME280;11751;42.700;24.170;2023-03-03T09:22:23;93891.94;;;6.77;nan
23166;BME280;11751;42.700;24.170;2023-03-03T09:24:52;93889.78;;;6.82;nan
23166;BME280;11751;42.700;24.170;2023-03-03T09:27:36;93886.09;;;7.00;nan
23166;BME280;11751;42.700;24.170;2023-03-03T09:33:20;93876.19;;;7.25;nan
23166;BME280;11751;42.700;24.170;2023-03-03T09:35:50;93878.56;;;7.21;nan
23166;BME280;11751;42.700;24.170;2023-03-03T09:40:55;93881.66;;;7.51;nan
23166;BME280;11751;42.700;24.170;2023-03-03T09:43:50;93883.28;;;7.47;nan
23166;BME280;11751;42.700;24.170;2023-03-03T09:49:24;93876.50;;;7.55;nan
23166;BME280;11751;42.700;24.170;2023-03-03T09:57:25;93880.91;;;7.71;nan
23166;BME280;11751;42.700;24.170;2023-03-03T10:00:18;93876.34;;;7.81;nan
23166;BME280;11751;42.700;24.170;2023-03-03T10:09:00;93868.03;;;8.09;nan
23166;BME280;11751;42.700;24.170;2023-03-03T10:26:24;93852.50;;;7.93;nan
23166;BME280;11751;42.700;24.170;2023-03-03T10:31:34;93842.25;;;7.88;nan
23166;BME280;11751;42.700;24.170;2023-03-03T10:39:26;93840.75;;;7.87;nan
23166;BME280;11751;42.700;24.170;2023-03-03T10:50:50;93831.59;;;8.07;nan
23166;BME280;11751;42.700;24.170;2023-03-03T10:53:21;93830.34;;;8.36;nan
23166;BME280;11751;42.700;24.170;2023-03-03T11:01:25;93815.66;;;8.15;nan
23166;BME280;11751;42.700;24.170;2023-03-03T11:06:47;93805.75;;;8.06;nan
23166;BME280;11751;42.700;24.170;2023-03-03T11:09:41;93820.56;;;8.22;nan
23166;BME280;11751;42.700;24.170;2023-03-03T11:23:29;93807.09;;;8.13;nan
23166;BME280;11751;42.700;24.170;2023-03-03T11:26:09;93816.06;;;7.91;nan
23166;BME280;11751;42.700;24.170;2023-03-03T11:36:44;93808.81;;;7.88;nan
23166;BME280;11751;42.700;24.170;2023-03-03T11:39:17;93798.31;;;7.81;nan
23166;BME280;11751;42.700;24.170;2023-03-03T11:44:40;93798.47;;;8.24;nan
23166;BME280;11751;42.700;24.170;2023-03-03T11:49:41;93788.34;;;8.48;nan
23166;BME280;11751;42.700;24.170;2023-03-03T12:19:31;93778.00;;;8.56;nan
23166;BME280;11751;42.700;24.170;2023-03-03T12:25:00;93777.91;;;8.42;nan
23166;BME280;11751;42.700;24.170;2023-03-03T12:35:17;93787.63;;;8.48;nan
23166;BME280;11751;42.700;24.170;2023-03-03T12:40:42;93782.34;;;8.37;nan
23166;BME280;11751;42.700;24.170;2023-03-03T12:43:39;93791.38;;;8.23;nan
23166;BME280;11751;42.700;24.170;2023-03-03T12:46:25;93792.56;;;8.35;nan
23166;BME280;11751;42.700;24.170;2023-03-03T12:48:53;93773.72;;;8.20;nan
23166;BME280;11751;42.700;24.170;2023-03-03T12:57:15;93776.63;;;8.15;nan
23166;BME280;11751;42.700;24.170;2023-03-03T13:00:02;93772.56;;;8.16;nan
23166;BME280;11751;42.700;24.170;2023-03-03T13:03:09;93766.94;;;8.44;nan
23166;BME280;11751;42.700;24.170;2023-03-03T13:05:50;93763.06;;;8.47;nan
23166;BME280;11751;42.700;24.170;2023-03-03T13:08:41;93771.88;;;8.65;nan
23166;BME280;11751;42.700;24.170;2023-03-03T13:13:51;93761.69;;;8.75;nan
23166;BME280;11751;42.700;24.170;2023-03-03T13:16:32;93754.66;;;8.89;nan
23166;BME280;11751;42.700;24.170;2023-03-03T13:19:03;93753.31;;;8.83;nan
23166;BME280;11751;42.700;24.170;2023-03-03T13:26:38;93754.50;;;9.17;nan
23166;BME280;11751;42.700;24.170;2023-03-03T13:29:15;93758.66;;;9.31;nan
23166;BME280;11751;42.700;24.170;2023-03-03T13:37:20;93739.44;;;9.05;nan
23166;BME280;11751;42.700;24.170;2023-03-03T13:40:00;93740.94;;;9.36;nan
23166;BME280;11751;42.700;24.170;2023-03-03T13:51:29;93748.41;;;9.41;nan
23166;BME280;11751;42.700;24.170;2023-03-03T14:08:08;93745.06;;;9.28;nan
23166;BME280;11751;42.700;24.170;2023-03-03T14:10:52;93736.47;;;9.18;nan
23166;BME280;11751;42.700;24.170;2023-03-03T14:13:26;93739.66;;;9.22;nan
23166;BME280;11751;42.700;24.170;2023-03-03T14:16:03;93746.34;;;9.19;nan
23166;BME280;11751;42.700;24.170;2023-03-03T14:18:53;93735.16;;;9.04;nan
23166;BME280;11751;42.700;24.170;2023-03-03T14:22:03;93739.03;;;9.01;nan
23166;BME280;11751;42.700;24.170;2023-03-03T14:24:27;93737.75;;;9.02;nan
23166;BME280;11751;42.700;24.170;2023-03-03T14:26:55;93740.56;;;9.17;nan
23166;BME280;11751;42.700;24.170;2023-03-03T14:31:50;93734.56;;;8.98;nan
23166;BME280;11751;42.700;24.170;2023-03-03T14:36:48;93738.28;;;8.93;nan
23166;BME280;11751;42.700;24.170;2023-03-03T14:39:35;93737.91;;;8.89;nan
23166;BME280;11751;42.700;24.170;2023-03-03T14:42:06;93730.72;;;8.58;nan
23166;BME280;11751;42.700;24.170;2023-03-03T14:44:52;93736.94;;;8.79;nan
23166;BME280;11751;42.700;24.170;2023-03-03T14:47:26;93737.03;;;8.51;nan
23166;BME280;11751;42.700;24.170;2023-03-03T14:49:53;93732.94;;;8.52;nan
23166;BME280;11751;42.700;24.170;2023-03-03T14:52:26;93736.06;;;8.42;nan
23166;BME280;11751;42.700;24.170;2023-03-03T14:54:56;93734.59;;;8.48;nan
23166;BME280;11751;42.700;24.170;2023-03-03T15:02:56;93729.09;;;8.28;nan
23166;BME280;11751;42.700;24.170;2023-03-03T15:05:33;93722.44;;;8.31;nan
23166;BME280;11751;42.700;24.170;2023-03-03T15:10:40;93725.56;;;7.92;nan
23166;BME280;11751;42.700;24.170;2023-03-03T15:18:23;93724.09;;;7.98;nan
23166;BME280;11751;42.700;24.170;2023-03-03T15:21:10;93734.84;;;7.87;nan
23166;BME280;11751;42.700;24.170;2023-03-03T15:26:26;93725.97;;;7.96;nan
23166;BME280;11751;42.700;24.170;2023-03-03T15:29:21;93736.09;;;8.14;nan
23166;BME280;11751;42.700;24.170;2023-03-03T15:39:51;93734.84;;;7.94;nan
23166;BME280;11751;42.700;24.170;2023-03-03T15:42:26;93742.44;;;7.86;nan
23166;BME280;11751;42.700;24.170;2023-03-03T15:54:05;93747.16;;;7.99;nan
23166;BME280;11751;42.700;24.170;2023-03-03T15:56:52;93746.72;;;7.87;nan
23166;BME280;11751;42.700;24.170;2023-03-03T15:59:41;93748.16;;;7.81;nan
23166;BME280;11751;42.700;24.170;2023-03-03T16:05:14;93750.44;;;7.90;nan
23166;BME280;11751;42.700;24.170;2023-03-03T16:10:36;93757.63;;;7.78;nan
23166;BME280;11751;42.700;24.170;2023-03-03T16:15:57;93760.72;;;7.67;nan
23166;BME280;11751;42.700;24.170;2023-03-03T16:18:54;93773.34;;;7.68;nan
23166;BME280;11751;42.700;24.170;2023-03-03T16:24:37;93776.06;;;7.40;nan
23166;BME280;11751;42.700;24.170;2023-03-03T16:27:14;93778.25;;;7.34;nan
23166;BME280;11751;42.700;24.170;2023-03-03T16:32:43;93778.88;;;7.20;nan
23166;BME280;11751;42.700;24.170;2023-03-03T16:37:55;93780.75;;;7.25;nan
23166;BME280;11751;42.700;24.170;2023-03-03T16:43:05;93796.59;;;7.50;nan
23166;BME280;11751;42.700;24.170;2023-03-03T16:45:38;93799.13;;;7.41;nan
23166;BME280;11751;42.700;24.170;2023-03-03T16:48:13;93808.84;;;7.47;nan
23166;BME280;11751;42.700;24.170;2023-03-03T17:01:49;93815.69;;;7.46;nan
23166;BME280;11751;42.700;24.170;2023-03-03T17:09:57;93820.44;;;7.38;nan
23166;BME280;11751;42.700;24.170;2023-03-03T17:18:04;93832.06;;;7.29;nan
23166;BME280;11751;42.700;24.170;2023-03-03T17:32:08;93822.69;;;7.19;nan
23166;BME280;11751;42.700;24.170;2023-03-03T17:35:11;93830.97;;;7.32;nan
23166;BME280;11751;42.700;24.170;2023-03-03T17:40:33;93831.63;;;7.25;nan
23166;BME280;11751;42.700;24.170;2023-03-03T17:43:20;93835.97;;;7.13;nan
23166;BME280;11751;42.700;24.170;2023-03-03T17:45:50;93840.94;;;7.28;nan
23166;BME280;11751;42.700;24.170;2023-03-03T17:57:04;93841.78;;;7.02;nan
23166;BME280;11751;42.700;24.170;2023-03-03T18:17:26;93858.72;;;6.91;nan
23166;BME280;11751;42.700;24.170;2023-03-03T18:20:41;93853.81;;;6.97;nan
23166;BME280;11751;42.700;24.170;2023-03-03T18:22:45;93866.84;;;7.02;nan
23166;BME280;11751;42.700;24.170;2023-03-03T18:25:18;93866.88;;;6.89;nan
23166;BME280;11751;42.700;24.170;2023-03-03T18:28:12;93861.47;;;7.04;nan
23166;BME280;11751;42.700;24.170;2023-03-03T18:30:52;93874.13;;;7.05;nan
23166;BME280;11751;42.700;24.170;2023-03-03T18:38:55;93891.94;;;6.89;nan
23166;BME280;11751;42.700;24.170;2023-03-03T18:41:29;93878.03;;;6.89;nan
23166;BME280;11751;42.700;24.170;2023-03-03T18:44:22;93885.50;;;6.94;nan
23166;BME280;11751;42.700;24.170;2023-03-03T18:46:49;93889.41;;;7.12;nan
23166;BME280;11751;42.700;24.170;2023-03-03T18:49:16;93899.13;;;6.85;nan
23166;BME280;11751;42.700;24.170;2023-03-03T18:56:44;93899.78;;;7.11;nan
23166;BME280;11751;42.700;24.170;2023-03-03T19:04:45;93915.47;;;6.88;nan
23166;BME280;11751;42.700;24.170;2023-03-03T19:07:20;93911.44;;;6.77;nan
23166;BME280;11751;42.700;24.170;2023-03-03T19:12:59;93914.81;;;6.95;nan
23166;BME280;11751;42.700;24.170;2023-03-03T19:18:04;93920.28;;;6.88;nan
23166;BME280;11751;42.700;24.170;2023-03-03T19:20:40;93919.22;;;6.91;nan
23166;BME280;11751;42.700;24.170;2023-03-03T19:23:19;93927.91;;;6.87;nan
23166;BME280;11751;42.700;24.170;2023-03-03T19:31:38;93931.53;;;6.82;nan
23166;BME280;11751;42.700;24.170;2023-03-03T19:34:19;93931.53;;;6.95;nan
23166;BME280;11751;42.700;24.170;2023-03-03T19:39:36;93938.91;;;6.80;nan
23166;BME280;11751;42.700;24.170;2023-03-03T19:42:12;93937.09;;;6.82;nan
23166;BME280;11751;42.700;24.170;2023-03-03T19:45:09;93945.13;;;6.86;nan